createdAt,value
2023-03-04T00:00:06.597Z,400.57
2023-03-04T00:01:09.672Z,400.41
2023-03-04T00:02:06.680Z,400.54
2023-03-04T00:03:06.630Z,400.51
2023-03-04T00:04:06.610Z,400.2
2023-03-04T00:05:06.602Z,399.09
2023-03-04T00:06:06.607Z,397.77
2023-03-04T00:07:06.618Z,396.61
2023-03-04T00:08:06.616Z,395.72
2023-03-04T00:09:06.619Z,394.17
2023-03-04T00:10:06.644Z,393.13
2023-03-04T00:11:06.626Z,392.51
2023-03-04T00:12:09.407Z,391.96
2023-03-04T00:13:06.636Z,391.27
2023-03-04T00:14:06.635Z,391.69
2023-03-04T00:15:06.622Z,391.47
2023-03-04T00:16:06.732Z,390.96
2023-03-04T00:17:06.628Z,391.66
2023-03-04T00:18:06.626Z,392.07
2023-03-04T00:19:06.624Z,391.6
2023-03-04T00:20:06.631Z,390.96
2023-03-04T00:21:06.632Z,390.5
2023-03-04T00:22:06.630Z,388.4
2023-03-04T00:23:06.665Z,387.19
2023-03-04T00:24:06.632Z,383.92
2023-03-04T00:25:09.399Z,379.66
2023-03-04T00:26:06.633Z,376.87
2023-03-04T00:27:06.635Z,373.4
2023-03-04T00:28:06.644Z,369.29
2023-03-04T00:29:06.657Z,366.83
2023-03-04T00:30:06.640Z,362.65
2023-03-04T00:31:06.649Z,361.2
2023-03-04T00:32:06.730Z,358.14
2023-03-04T00:33:06.649Z,357.19
2023-03-04T00:34:06.653Z,355.49
2023-03-04T00:35:06.651Z,354.59
2023-03-04T00:36:06.648Z,353.31
2023-03-04T00:37:06.661Z,352.86
2023-03-04T00:38:06.657Z,352.19
2023-03-04T00:39:06.654Z,351.74
2023-03-04T00:40:06.654Z,352.19
2023-03-04T00:41:06.709Z,351.67
2023-03-04T00:42:06.657Z,350.62
2023-03-04T00:43:06.665Z,350.46
2023-03-04T00:44:06.718Z,349.22
2023-03-04T00:45:06.660Z,348.31
2023-03-04T00:46:06.685Z,346.12
2023-03-04T00:47:06.683Z,345.04
2023-03-04T00:48:06.685Z,344.47
2023-03-04T00:49:06.682Z,344.03
2023-03-04T00:50:06.670Z,342.51
2023-03-04T00:51:06.676Z,341.89
2023-03-04T00:52:06.675Z,340.22
2023-03-04T00:53:06.677Z,339.47
2023-03-04T00:54:06.684Z,337.76
2023-03-04T00:55:06.693Z,335.64
2023-03-04T00:56:06.678Z,335.18
2023-03-04T00:57:06.712Z,334.93
2023-03-04T00:58:06.694Z,333.87
2023-03-04T00:59:06.697Z,332.26
2023-03-04T01:00:06.684Z,331.22
2023-03-04T01:01:06.735Z,329.2
2023-03-04T01:02:06.758Z,327.66
2023-03-04T01:03:06.690Z,325.15
2023-03-04T01:04:06.692Z,324.57
2023-03-04T01:05:06.690Z,323.21
2023-03-04T01:06:06.706Z,321.38
2023-03-04T01:07:06.701Z,320.02
2023-03-04T01:08:06.694Z,320.01
2023-03-04T01:09:06.697Z,318.7
2023-03-04T01:10:06.714Z,319.53
2023-03-04T01:11:06.709Z,318.43
2023-03-04T01:12:06.710Z,318.91
2023-03-04T01:13:06.736Z,317.58
2023-03-04T01:14:06.713Z,316.88
2023-03-04T01:15:06.711Z,317.32
2023-03-04T01:16:06.715Z,316.16
2023-03-04T01:17:06.731Z,316.37
2023-03-04T01:18:06.749Z,315.76
2023-03-04T01:19:06.714Z,314.18
2023-03-04T01:20:06.719Z,313.94
2023-03-04T01:21:06.718Z,312.57
2023-03-04T01:22:06.723Z,312.58
2023-03-04T01:23:09.821Z,312.98
2023-03-04T01:24:06.726Z,313.23
2023-03-04T01:25:06.736Z,312.35
2023-03-04T01:26:06.727Z,310.77
2023-03-04T01:27:06.729Z,309.7
2023-03-04T01:28:06.739Z,308.31
2023-03-04T01:29:06.752Z,306.31
2023-03-04T01:30:06.740Z,305.43
2023-03-04T01:31:06.797Z,304.71
2023-03-04T01:32:06.835Z,304.08
2023-03-04T01:33:06.736Z,303.83
2023-03-04T01:34:06.743Z,304.71
2023-03-04T01:35:06.742Z,304.21
2023-03-04T01:36:06.738Z,304.5
2023-03-04T01:37:06.739Z,304.42
2023-03-04T01:38:06.777Z,306.25
2023-03-04T01:39:06.742Z,305.31
2023-03-04T01:40:06.744Z,305.76
2023-03-04T01:41:06.757Z,304.65
2023-03-04T01:42:06.754Z,304.85
2023-03-04T01:43:06.755Z,303.87
2023-03-04T01:44:06.759Z,305.51
2023-03-04T01:45:06.838Z,305.47
2023-03-04T01:46:06.814Z,305.67
2023-03-04T01:47:06.762Z,306.6
2023-03-04T01:48:06.764Z,305.85
2023-03-04T01:49:06.826Z,306.3
2023-03-04T01:50:06.791Z,306.28
2023-03-04T01:51:06.784Z,307.13
2023-03-04T01:52:06.766Z,306.99
2023-03-04T01:53:06.778Z,307.18
2023-03-04T01:54:06.778Z,306.87
2023-03-04T01:55:07.049Z,306.83
2023-03-04T01:56:06.779Z,307.77
2023-03-04T01:57:06.777Z,307.54
2023-03-04T01:58:06.782Z,307.25
2023-03-04T01:59:06.783Z,307.5
2023-03-04T02:00:07.824Z,307.03
2023-03-04T02:01:06.805Z,308.19
2023-03-04T02:02:06.792Z,308.38
2023-03-04T02:03:06.807Z,308.58
2023-03-04T02:04:06.814Z,308.81
2023-03-04T02:05:06.805Z,308.81
2023-03-04T02:06:09.618Z,309.28
2023-03-04T02:07:06.795Z,309.29
2023-03-04T02:08:06.802Z,309.04
2023-03-04T02:09:06.814Z,309.81
2023-03-04T02:10:06.814Z,310.17
2023-03-04T02:11:06.810Z,311.02
2023-03-04T02:12:06.854Z,311.24
2023-03-04T02:13:06.839Z,311.92
2023-03-04T02:14:06.824Z,312.32
2023-03-04T02:15:06.826Z,313.96
2023-03-04T02:16:06.886Z,313.87
2023-03-04T02:17:09.608Z,313.88
2023-03-04T02:18:06.814Z,312.94
2023-03-04T02:19:06.811Z,312.71
2023-03-04T02:20:06.833Z,312.47
2023-03-04T02:21:06.825Z,312.72
2023-03-04T02:22:06.822Z,312.2
2023-03-04T02:23:06.815Z,312.93
2023-03-04T02:24:06.836Z,312.42
2023-03-04T02:25:06.846Z,312.87
2023-03-04T02:26:06.820Z,312.64
2023-03-04T02:27:06.825Z,311.29
2023-03-04T02:28:09.592Z,312.03
2023-03-04T02:29:06.828Z,310.83
2023-03-04T02:30:06.865Z,310.56
2023-03-04T02:31:06.871Z,310.37
2023-03-04T02:32:06.855Z,310.56
2023-03-04T02:33:06.869Z,309.64
2023-03-04T02:34:06.841Z,309.59
2023-03-04T02:35:06.886Z,309.83
2023-03-04T02:36:06.864Z,309.58
2023-03-04T02:37:06.846Z,309.6
2023-03-04T02:38:06.847Z,310.49
2023-03-04T02:39:09.929Z,310.2
2023-03-04T02:40:06.876Z,310.94
2023-03-04T02:41:06.862Z,309.8
2023-03-04T02:42:06.856Z,308.65
2023-03-04T02:43:06.851Z,308.99
2023-03-04T02:44:06.855Z,307.08
2023-03-04T02:45:06.875Z,307.58
2023-03-04T02:46:06.868Z,306.64
2023-03-04T02:47:06.865Z,306.61
2023-03-04T02:48:06.862Z,306.64
2023-03-04T02:49:06.883Z,306.91
2023-03-04T02:50:07.156Z,306.63
2023-03-04T02:51:06.869Z,306.4
2023-03-04T02:52:06.862Z,305.52
2023-03-04T02:53:06.863Z,304.66
2023-03-04T02:54:06.874Z,303.96
2023-03-04T02:55:06.901Z,302.36
2023-03-04T02:56:06.868Z,302.35
2023-03-04T02:57:06.891Z,299.59
2023-03-04T02:58:06.899Z,298.04
2023-03-04T02:59:06.873Z,296.87
2023-03-04T03:00:06.902Z,295.35
2023-03-04T03:01:06.875Z,293.34
2023-03-04T03:02:06.899Z,290.82
2023-03-04T03:03:06.941Z,288.75
2023-03-04T03:04:06.913Z,287.64
2023-03-04T03:05:06.933Z,285.09
2023-03-04T03:06:06.885Z,282.83
2023-03-04T03:07:06.901Z,280.19
2023-03-04T03:08:06.897Z,279.06
2023-03-04T03:09:06.898Z,276.58
2023-03-04T03:10:06.937Z,273.35
2023-03-04T03:11:08.886Z,270.68
2023-03-04T03:12:06.901Z,267.69
2023-03-04T03:13:06.911Z,266.76
2023-03-04T03:14:06.904Z,264.46
2023-03-04T03:15:06.922Z,262.69
2023-03-04T03:16:06.956Z,260.45
2023-03-04T03:17:06.931Z,258.63
2023-03-04T03:18:06.918Z,254.92
2023-03-04T03:19:06.917Z,253.34
2023-03-04T03:20:06.938Z,252.25
2023-03-04T03:21:06.933Z,249.64
2023-03-04T03:22:06.910Z,247.42
2023-03-04T03:23:06.914Z,245.05
2023-03-04T03:24:06.923Z,243.02
2023-03-04T03:25:06.934Z,241.6
2023-03-04T03:26:06.921Z,240.68
2023-03-04T03:27:06.927Z,239.71
2023-03-04T03:28:06.920Z,239.52
2023-03-04T03:29:06.928Z,238.06
2023-03-04T03:30:06.940Z,236.94
2023-03-04T03:31:06.926Z,236.67
2023-03-04T03:32:06.961Z,234.57
2023-03-04T03:33:06.928Z,232.83
2023-03-04T03:34:06.926Z,231.39
2023-03-04T03:35:06.945Z,229.79
2023-03-04T03:36:07.014Z,227.86
2023-03-04T03:37:06.960Z,227.84
2023-03-04T03:38:06.950Z,227.65
2023-03-04T03:39:06.935Z,227.18
2023-03-04T03:40:06.954Z,227.36
2023-03-04T03:41:06.935Z,226.25
2023-03-04T03:42:06.943Z,226.49
2023-03-04T03:43:06.950Z,226.69
2023-03-04T03:44:06.948Z,227.39
2023-03-04T03:45:06.963Z,228.53
2023-03-04T03:46:07.049Z,229.27
2023-03-04T03:47:06.959Z,231.2
2023-03-04T03:48:06.955Z,232.14
2023-03-04T03:49:06.955Z,233.01
2023-03-04T03:50:07.218Z,234.04
2023-03-04T03:51:06.954Z,235.84
2023-03-04T03:52:06.953Z,236.98
2023-03-04T03:53:06.976Z,237.66
2023-03-04T03:54:06.956Z,239.67
2023-03-04T03:55:06.963Z,239.15
2023-03-04T03:56:06.966Z,240.49
2023-03-04T03:57:06.969Z,241.65
2023-03-04T03:58:06.972Z,243.08
2023-03-04T03:59:06.962Z,244.79
2023-03-04T04:00:06.978Z,245.47
2023-03-04T04:01:06.974Z,247.87
2023-03-04T04:02:07.147Z,249.23
2023-03-04T04:03:07.052Z,250.6
2023-03-04T04:04:06.978Z,251.8
2023-03-04T04:05:06.985Z,253.2
2023-03-04T04:06:06.975Z,254.34
2023-03-04T04:07:06.993Z,253.63
2023-03-04T04:08:06.981Z,254.52
2023-03-04T04:09:07.008Z,254.78
2023-03-04T04:10:06.986Z,254.78
2023-03-04T04:11:06.985Z,255.77
2023-03-04T04:12:07.025Z,255.43
2023-03-04T04:13:07.000Z,255.99
2023-03-04T04:14:06.989Z,256.93
2023-03-04T04:15:07.010Z,256.43
2023-03-04T04:16:07.061Z,257.24
2023-03-04T04:17:06.994Z,256.47
2023-03-04T04:18:07.021Z,256.71
2023-03-04T04:19:06.998Z,256.9
2023-03-04T04:20:07.010Z,257.15
2023-03-04T04:21:07.023Z,258.05
2023-03-04T04:22:07.007Z,258.96
2023-03-04T04:23:07.033Z,260.43
2023-03-04T04:24:07.010Z,260.87
2023-03-04T04:25:07.029Z,260.88
2023-03-04T04:26:07.023Z,261.14
2023-03-04T04:27:07.014Z,260.68
2023-03-04T04:28:07.019Z,261.09
2023-03-04T04:29:07.008Z,260.63
2023-03-04T04:30:07.057Z,260.44
2023-03-04T04:31:07.085Z,259.45
2023-03-04T04:32:07.040Z,260.6
2023-03-04T04:33:09.855Z,260.78
2023-03-04T04:34:07.021Z,262.17
2023-03-04T04:35:07.024Z,262.87
2023-03-04T04:36:07.028Z,263.79
2023-03-04T04:37:07.022Z,264.44
2023-03-04T04:38:07.029Z,265.2
2023-03-04T04:39:07.040Z,265.19
2023-03-04T04:40:07.033Z,265.9
2023-03-04T04:41:07.057Z,266.4
2023-03-04T04:42:07.030Z,267.05
2023-03-04T04:43:07.051Z,267.49
2023-03-04T04:44:08.108Z,269.86
2023-03-04T04:45:07.039Z,269.59
2023-03-04T04:46:07.064Z,271.19
2023-03-04T04:47:07.060Z,272.6
2023-03-04T04:48:07.038Z,272.98
2023-03-04T04:49:07.045Z,275.54
2023-03-04T04:50:07.049Z,275.37
2023-03-04T04:51:07.056Z,277.09
2023-03-04T04:52:07.063Z,277.55
2023-03-04T04:53:07.054Z,279.27
2023-03-04T04:54:07.062Z,280.84
2023-03-04T04:55:09.875Z,282.36
2023-03-04T04:56:07.046Z,283.08
2023-03-04T04:57:07.154Z,283.25
2023-03-04T04:58:07.051Z,284.84
2023-03-04T04:59:07.059Z,285.99
2023-03-04T05:00:07.057Z,287.57
2023-03-04T05:01:07.118Z,287.95
2023-03-04T05:02:07.064Z,288.26
2023-03-04T05:03:07.098Z,287.52
2023-03-04T05:04:07.073Z,287.86
2023-03-04T05:05:07.066Z,288.02
2023-03-04T05:06:09.878Z,288.22
2023-03-04T05:07:07.076Z,289.34
2023-03-04T05:08:07.080Z,289.38
2023-03-04T05:09:07.079Z,289.67
2023-03-04T05:10:07.079Z,289.67
2023-03-04T05:11:07.078Z,290.12
2023-03-04T05:12:07.094Z,290.32
2023-03-04T05:13:07.115Z,290.29
2023-03-04T05:14:07.089Z,289.58
2023-03-04T05:15:07.087Z,290.2
2023-03-04T05:16:07.157Z,291.25
2023-03-04T05:17:10.166Z,290.73
2023-03-04T05:18:07.091Z,290.06
2023-03-04T05:19:07.089Z,290.13
2023-03-04T05:20:07.122Z,290.6
2023-03-04T05:21:07.117Z,291.02
2023-03-04T05:22:07.100Z,292.41
2023-03-04T05:23:07.107Z,294.05
2023-03-04T05:24:07.103Z,294.59
2023-03-04T05:25:07.106Z,295.53
2023-03-04T05:26:07.102Z,296.67
2023-03-04T05:27:07.112Z,296.89
2023-03-04T05:28:07.108Z,296.18
2023-03-04T05:29:07.148Z,296.25
2023-03-04T05:30:07.143Z,296.01
2023-03-04T05:31:07.149Z,294.44
2023-03-04T05:32:07.166Z,292.62
2023-03-04T05:33:07.120Z,290.97
2023-03-04T05:34:07.112Z,290.36
2023-03-04T05:35:07.117Z,289.96
2023-03-04T05:36:07.131Z,289.19
2023-03-04T05:37:07.129Z,290.54
2023-03-04T05:38:07.126Z,292.37
2023-03-04T05:39:07.133Z,292.59
2023-03-04T05:40:07.134Z,293.05
2023-03-04T05:41:07.148Z,294.16
2023-03-04T05:42:07.132Z,295.5
2023-03-04T05:43:07.142Z,296.44
2023-03-04T05:44:07.139Z,298.27
2023-03-04T05:45:07.161Z,299.75
2023-03-04T05:46:07.175Z,300.48
2023-03-04T05:47:07.140Z,301.04
2023-03-04T05:48:07.146Z,301.08
2023-03-04T05:49:07.146Z,301.04
2023-03-04T05:50:07.143Z,301.2
2023-03-04T05:51:07.144Z,301.93
2023-03-04T05:52:07.144Z,302.65
2023-03-04T05:53:07.152Z,304.14
2023-03-04T05:54:07.150Z,304.2
2023-03-04T05:55:07.150Z,304.22
2023-03-04T05:56:07.157Z,303.13
2023-03-04T05:57:07.160Z,302.96
2023-03-04T05:58:07.155Z,303.15
2023-03-04T05:59:07.161Z,304.11
2023-03-04T06:00:07.194Z,304.36
2023-03-04T06:01:07.195Z,304.8
2023-03-04T06:02:07.178Z,305.48
2023-03-04T06:03:07.175Z,306.66
2023-03-04T06:04:07.272Z,307.02
2023-03-04T06:05:07.184Z,308.15
2023-03-04T06:06:07.177Z,308.93
2023-03-04T06:07:07.194Z,309.11
2023-03-04T06:08:07.168Z,309.35
2023-03-04T06:09:07.173Z,310.11
2023-03-04T06:10:07.178Z,309.33
2023-03-04T06:11:07.172Z,310.29
2023-03-04T06:12:07.182Z,311.61
2023-03-04T06:13:07.178Z,312.53
2023-03-04T06:14:07.233Z,312.55
2023-03-04T06:15:07.183Z,312.08
2023-03-04T06:16:07.193Z,312.57
2023-03-04T06:17:07.215Z,312.93
2023-03-04T06:18:07.183Z,312.48
2023-03-04T06:19:07.196Z,312.69
2023-03-04T06:20:07.203Z,312.68
2023-03-04T06:21:07.190Z,311.97
2023-03-04T06:22:07.190Z,310.82
2023-03-04T06:23:07.203Z,310.84
2023-03-04T06:24:07.194Z,310.61
2023-03-04T06:25:07.196Z,310.2
2023-03-04T06:26:07.206Z,310.86
2023-03-04T06:27:07.207Z,312.23
2023-03-04T06:28:07.201Z,314.27
2023-03-04T06:29:07.213Z,314.18
2023-03-04T06:30:07.212Z,315.39
2023-03-04T06:31:07.243Z,315.62
2023-03-04T06:32:07.244Z,316.94
2023-03-04T06:33:07.237Z,317.18
2023-03-04T06:34:07.210Z,317.4
2023-03-04T06:35:07.215Z,318.03
2023-03-04T06:36:07.213Z,319.19
2023-03-04T06:37:07.234Z,319.91
2023-03-04T06:38:07.214Z,319.5
2023-03-04T06:39:07.216Z,320.37
2023-03-04T06:40:07.233Z,320.09
2023-03-04T06:41:07.246Z,320.15
2023-03-04T06:42:07.218Z,319.93
2023-03-04T06:43:07.227Z,320.64
2023-03-04T06:44:07.232Z,320.86
2023-03-04T06:45:07.230Z,322.82
2023-03-04T06:46:07.232Z,325.3
2023-03-04T06:47:07.232Z,326.39
2023-03-04T06:48:07.241Z,327.95
2023-03-04T06:49:07.299Z,329.68
2023-03-04T06:50:07.237Z,331.12
2023-03-04T06:51:07.234Z,330.92
2023-03-04T06:52:07.243Z,331.34
2023-03-04T06:53:07.252Z,332.45
2023-03-04T06:54:07.240Z,333.43
2023-03-04T06:55:07.267Z,334.28
2023-03-04T06:56:07.264Z,335.41
2023-03-04T06:57:07.247Z,336.73
2023-03-04T06:58:07.250Z,338.27
2023-03-04T06:59:07.307Z,339.92
2023-03-04T07:00:10.137Z,341.63
2023-03-04T07:01:07.320Z,342.92
2023-03-04T07:02:07.256Z,344.3
2023-03-04T07:03:07.259Z,344.02
2023-03-04T07:04:07.276Z,344.58
2023-03-04T07:05:07.335Z,346.34
2023-03-04T07:06:07.289Z,346.96
2023-03-04T07:07:07.266Z,348.54
2023-03-04T07:08:07.274Z,348.82
2023-03-04T07:09:07.263Z,348.95
2023-03-04T07:10:07.796Z,349.83
2023-03-04T07:11:08.350Z,349.88
2023-03-04T07:12:07.285Z,349.59
2023-03-04T07:13:07.270Z,349.64
2023-03-04T07:14:07.267Z,349.87
2023-03-04T07:15:07.276Z,350.74
2023-03-04T07:16:07.340Z,351.45
2023-03-04T07:17:07.288Z,352.6
2023-03-04T07:18:07.286Z,353.21
2023-03-04T07:19:07.282Z,354.3
2023-03-04T07:20:07.284Z,355.63
2023-03-04T07:21:07.375Z,357.59
2023-03-04T07:22:10.374Z,358.22
2023-03-04T07:23:07.298Z,359.13
2023-03-04T07:24:07.291Z,359.1
2023-03-04T07:25:07.298Z,360.91
2023-03-04T07:26:07.290Z,361.19
2023-03-04T07:27:07.296Z,363.49
2023-03-04T07:28:07.309Z,365.27
2023-03-04T07:29:07.302Z,368.51
2023-03-04T07:30:07.300Z,369
2023-03-04T07:31:07.304Z,371.17
2023-03-04T07:32:07.373Z,372.63
2023-03-04T07:33:10.380Z,373.32
2023-03-04T07:34:07.369Z,374.7
2023-03-04T07:35:07.318Z,375.44
2023-03-04T07:36:07.311Z,376.91
2023-03-04T07:37:07.336Z,377.97
2023-03-04T07:38:07.312Z,379.49
2023-03-04T07:39:07.309Z,381.22
2023-03-04T07:40:07.313Z,382.64
2023-03-04T07:41:07.312Z,384.62
2023-03-04T07:42:07.332Z,385.31
2023-03-04T07:43:07.316Z,385.91
2023-03-04T07:44:07.340Z,387.66
2023-03-04T07:45:07.318Z,388.92
2023-03-04T07:46:07.474Z,390.25
2023-03-04T07:47:07.333Z,391.36
2023-03-04T07:48:07.324Z,392.84
2023-03-04T07:49:07.336Z,393.9
2023-03-04T07:50:07.333Z,395.82
2023-03-04T07:51:07.329Z,398.11
2023-03-04T07:52:07.347Z,399.66
2023-03-04T07:53:07.360Z,401.8
2023-03-04T07:54:07.350Z,403.72
2023-03-04T07:55:07.359Z,405.43
2023-03-04T07:56:07.367Z,406.87
2023-03-04T07:57:07.339Z,409.58
2023-03-04T07:58:07.339Z,411.69
2023-03-04T07:59:07.353Z,412.71
2023-03-04T08:00:07.349Z,413.68
2023-03-04T08:01:07.363Z,415.82
2023-03-04T08:02:07.355Z,416.89
2023-03-04T08:03:07.362Z,418.72
2023-03-04T08:04:07.465Z,420.44
2023-03-04T08:05:07.357Z,422.29
2023-03-04T08:06:07.359Z,423.55
2023-03-04T08:07:07.357Z,426.09
2023-03-04T08:08:07.364Z,426.13
2023-03-04T08:09:07.404Z,427.77
2023-03-04T08:10:07.368Z,428.18
2023-03-04T08:11:07.362Z,428.59
2023-03-04T08:12:07.381Z,428.6
2023-03-04T08:13:07.367Z,429.69
2023-03-04T08:14:07.379Z,430.94
2023-03-04T08:15:07.367Z,430.86
2023-03-04T08:16:07.465Z,432.14
2023-03-04T08:17:07.401Z,432.71
2023-03-04T08:18:07.378Z,435.24
2023-03-04T08:19:07.391Z,436
2023-03-04T08:20:07.376Z,437.87
2023-03-04T08:21:07.383Z,438.03
2023-03-04T08:22:07.389Z,438.08
2023-03-04T08:23:07.378Z,438.88
2023-03-04T08:24:07.474Z,439.71
2023-03-04T08:25:07.417Z,440.51
2023-03-04T08:26:07.397Z,439.7
2023-03-04T08:27:07.385Z,440.34
2023-03-04T08:28:07.424Z,439.7
2023-03-04T08:29:07.410Z,440.74
2023-03-04T08:30:07.393Z,441.8
2023-03-04T08:31:07.462Z,441.58
2023-03-04T08:32:07.493Z,442.41
2023-03-04T08:33:07.407Z,444.48
2023-03-04T08:34:07.405Z,446.29
2023-03-04T08:35:07.422Z,448.11
2023-03-04T08:36:07.403Z,450.64
2023-03-04T08:37:07.403Z,451.48
2023-03-04T08:38:07.421Z,450.82
2023-03-04T08:39:07.409Z,451.53
2023-03-04T08:40:07.404Z,452.13
2023-03-04T08:41:07.434Z,452.93
2023-03-04T08:42:07.415Z,453.29
2023-03-04T08:43:07.418Z,455.01
2023-03-04T08:44:07.408Z,457.25
2023-03-04T08:45:07.421Z,458.68
2023-03-04T08:46:07.455Z,461.5
2023-03-04T08:47:07.419Z,462.7
2023-03-04T08:48:07.424Z,464.26
2023-03-04T08:49:07.436Z,464.2
2023-03-04T08:50:07.418Z,465.1
2023-03-04T08:51:07.432Z,465.38
2023-03-04T08:52:07.432Z,465.57
2023-03-04T08:53:07.442Z,465.73
2023-03-04T08:54:07.432Z,465.37
2023-03-04T08:55:07.453Z,466.06
2023-03-04T08:56:07.434Z,467.58
2023-03-04T08:57:07.465Z,469.22
2023-03-04T08:58:07.441Z,471.29
2023-03-04T08:59:07.439Z,472.84
2023-03-04T09:00:07.441Z,475.33
2023-03-04T09:01:07.469Z,477.33
2023-03-04T09:02:07.527Z,479.84
2023-03-04T09:03:07.445Z,482.62
2023-03-04T09:04:07.450Z,484.42
2023-03-04T09:05:07.452Z,486.42
2023-03-04T09:06:07.451Z,488.22
2023-03-04T09:07:07.453Z,490.25
2023-03-04T09:08:07.447Z,490.87
2023-03-04T09:09:07.468Z,491.45
2023-03-04T09:10:07.452Z,492.91
2023-03-04T09:11:07.484Z,493.66
2023-03-04T09:12:07.493Z,494.84
2023-03-04T09:13:07.491Z,497.49
2023-03-04T09:14:07.465Z,498.85
2023-03-04T09:15:11.318Z,499.81
2023-03-04T09:16:07.511Z,502.08
2023-03-04T09:17:07.462Z,502.84
2023-03-04T09:18:07.471Z,504.04
2023-03-04T09:19:07.468Z,503.66
2023-03-04T09:20:07.467Z,505.73
2023-03-04T09:21:07.469Z,506.64
2023-03-04T09:22:07.480Z,507.61
2023-03-04T09:23:07.486Z,508.65
2023-03-04T09:24:07.481Z,510.13
2023-03-04T09:25:11.568Z,512.13
2023-03-04T09:26:07.488Z,514.7
2023-03-04T09:27:10.621Z,516.62
2023-03-04T09:28:07.489Z,517.61
2023-03-04T09:29:07.524Z,518.5
2023-03-04T09:30:07.493Z,518.93
2023-03-04T09:31:07.557Z,519.54
2023-03-04T09:32:07.571Z,521.29
2023-03-04T09:33:07.517Z,522.45
2023-03-04T09:34:07.495Z,523.55
2023-03-04T09:35:07.511Z,524.74
2023-03-04T09:36:07.515Z,525.52
2023-03-04T09:37:07.498Z,527.12
2023-03-04T09:38:10.541Z,528.81
2023-03-04T09:39:07.507Z,529.91
2023-03-04T09:40:07.508Z,530.56
2023-03-04T09:41:07.516Z,530.95
2023-03-04T09:42:07.510Z,531.86
2023-03-04T09:43:07.512Z,533.06
2023-03-04T09:44:07.520Z,533.81
2023-03-04T09:45:07.536Z,536.4
2023-03-04T09:46:07.516Z,537.52
2023-03-04T09:47:07.522Z,539.07
2023-03-04T09:48:07.518Z,541.8
2023-03-04T09:49:08.743Z,544.1
2023-03-04T09:50:07.526Z,545.8
2023-03-04T09:51:07.520Z,547.54
2023-03-04T09:52:07.519Z,549.62
2023-03-04T09:53:07.522Z,550.42
2023-03-04T09:54:07.517Z,552.41
2023-03-04T09:55:07.533Z,552.87
2023-03-04T09:56:07.522Z,554.03
2023-03-04T09:57:07.523Z,555.32
2023-03-04T09:58:07.549Z,556.45
2023-03-04T09:59:07.533Z,558.2
2023-03-04T10:00:10.332Z,559.6
2023-03-04T10:01:07.562Z,560.83
2023-03-04T10:02:07.539Z,562.95
2023-03-04T10:03:07.634Z,563.88
2023-03-04T10:04:07.536Z,565.14
2023-03-04T10:05:07.551Z,565.56
2023-03-04T10:06:07.540Z,566.12
2023-03-04T10:07:07.539Z,565.47
2023-03-04T10:08:07.654Z,566.07
2023-03-04T10:09:07.542Z,565.7
2023-03-04T10:10:07.543Z,565.84
2023-03-04T10:11:10.650Z,564.53
2023-03-04T10:12:07.563Z,565.09
2023-03-04T10:13:07.556Z,565.32
2023-03-04T10:14:07.556Z,567.31
2023-03-04T10:15:07.555Z,568.78
2023-03-04T10:16:07.605Z,571.25
2023-03-04T10:17:07.604Z,572.58
2023-03-04T10:18:07.570Z,573.67
2023-03-04T10:19:07.557Z,574.61
2023-03-04T10:20:07.565Z,575.31
2023-03-04T10:21:07.563Z,577.22
2023-03-04T10:22:07.583Z,577.87
2023-03-04T10:23:07.570Z,579.71
2023-03-04T10:24:07.573Z,580.89
2023-03-04T10:25:07.566Z,581.82
2023-03-04T10:26:07.570Z,583.09
2023-03-04T10:27:07.590Z,584.36
2023-03-04T10:28:07.575Z,585.49
2023-03-04T10:29:07.568Z,585.85
2023-03-04T10:30:07.581Z,587.06
2023-03-04T10:31:07.697Z,587.24
2023-03-04T10:32:07.636Z,589.12
2023-03-04T10:33:07.580Z,590.25
2023-03-04T10:34:07.581Z,592.5
2023-03-04T10:35:10.655Z,595.26
2023-03-04T10:36:07.580Z,596.1
2023-03-04T10:37:07.621Z,596.47
2023-03-04T10:38:07.577Z,597.77
2023-03-04T10:39:07.605Z,598.87
2023-03-04T10:40:07.589Z,599.16
2023-03-04T10:41:07.580Z,600.49
2023-03-04T10:42:07.730Z,601.6
2023-03-04T10:43:08.613Z,602.35
2023-03-04T10:44:07.585Z,603.36
2023-03-04T10:45:07.592Z,603.21
2023-03-04T10:46:07.675Z,602.42
2023-03-04T10:47:07.616Z,601.92
2023-03-04T10:48:07.626Z,602.8
2023-03-04T10:49:07.588Z,603.5
2023-03-04T10:50:07.604Z,605.32
2023-03-04T10:51:07.591Z,607.17
2023-03-04T10:52:07.624Z,609.05
2023-03-04T10:53:07.604Z,609.71
2023-03-04T10:54:07.632Z,610.13
2023-03-04T10:55:07.615Z,611.02
2023-03-04T10:56:07.615Z,612.11
2023-03-04T10:57:07.641Z,614.38
2023-03-04T10:58:07.622Z,617.25
2023-03-04T10:59:07.604Z,617.86
2023-03-04T11:00:07.604Z,618.84
2023-03-04T11:01:07.652Z,617.13
2023-03-04T11:02:07.633Z,616.81
2023-03-04T11:03:07.606Z,617.32
2023-03-04T11:04:07.749Z,618.22
2023-03-04T11:05:07.608Z,618.93
2023-03-04T11:06:07.611Z,618.85
2023-03-04T11:07:07.640Z,619.7
2023-03-04T11:08:07.620Z,618.58
2023-03-04T11:09:07.636Z,618.99
2023-03-04T11:10:07.624Z,619.05
2023-03-04T11:11:07.616Z,619.63
2023-03-04T11:12:07.647Z,620.59
2023-03-04T11:13:07.643Z,620.74
2023-03-04T11:14:07.627Z,620.42
2023-03-04T11:15:07.620Z,620
2023-03-04T11:16:07.682Z,620.02
2023-03-04T11:17:07.649Z,620.26
2023-03-04T11:18:07.625Z,620.4
2023-03-04T11:19:07.636Z,620.63
2023-03-04T11:20:07.673Z,620.58
2023-03-04T11:21:07.637Z,621.51
2023-03-04T11:22:07.680Z,620.57
2023-03-04T11:23:07.660Z,620.93
2023-03-04T11:24:13.308Z,620.7
2023-03-04T11:25:07.651Z,619.32
2023-03-04T11:26:07.658Z,617.82
2023-03-04T11:27:07.666Z,617.1
2023-03-04T11:28:09.332Z,616.46
2023-03-04T11:29:07.665Z,615.87
2023-03-04T11:30:07.668Z,616.59
2023-03-04T11:31:07.689Z,616.66
2023-03-04T11:32:07.795Z,616.14
2023-03-04T11:33:07.680Z,616.38
2023-03-04T11:34:07.664Z,615.28
2023-03-04T11:35:07.667Z,612.19
2023-03-04T11:36:07.689Z,610.01
2023-03-04T11:37:07.686Z,608.14
2023-03-04T11:38:07.680Z,605.6
2023-03-04T11:39:07.702Z,603.78
2023-03-04T11:40:07.712Z,602.89
2023-03-04T11:41:07.679Z,602.34
2023-03-04T11:42:07.699Z,602.85
2023-03-04T11:43:07.728Z,603.73
2023-03-04T11:44:07.699Z,604.61
2023-03-04T11:45:15.688Z,604.97
2023-03-04T11:46:07.910Z,606.04
2023-03-04T11:47:07.728Z,607.77
2023-03-04T11:48:07.697Z,608.71
2023-03-04T11:49:07.752Z,609.85
2023-03-04T11:50:07.724Z,611.24
2023-03-04T11:51:07.711Z,611.79
2023-03-04T11:52:07.756Z,611.77
2023-03-04T11:53:07.732Z,612.71
2023-03-04T11:54:10.484Z,612.38
2023-03-04T11:55:07.735Z,612.45
2023-03-04T11:56:07.751Z,611.67
2023-03-04T11:57:07.766Z,612.44
2023-03-04T11:58:07.745Z,612.36
2023-03-04T11:59:07.761Z,613.05
2023-03-04T12:00:07.760Z,613.02
2023-03-04T12:01:07.738Z,613.53
2023-03-04T12:02:07.758Z,613.78
2023-03-04T12:03:07.756Z,614.41
2023-03-04T12:04:07.838Z,615.28
2023-03-04T12:05:10.497Z,614.94
2023-03-04T12:06:07.740Z,615.05
2023-03-04T12:07:07.754Z,615.78
2023-03-04T12:08:07.775Z,615.72
2023-03-04T12:09:07.768Z,614.97
2023-03-04T12:10:07.730Z,615.72
2023-03-04T12:11:07.775Z,615.46
2023-03-04T12:12:07.785Z,616.37
2023-03-04T12:13:07.775Z,615.97
2023-03-04T12:14:07.750Z,617.37
2023-03-04T12:15:07.771Z,619.22
2023-03-04T12:16:10.950Z,621.15
2023-03-04T12:17:07.801Z,622.55
2023-03-04T12:18:07.748Z,625.27
2023-03-04T12:19:07.787Z,626.35
2023-03-04T12:20:07.774Z,627.02
2023-03-04T12:21:07.780Z,627.53
2023-03-04T12:22:07.786Z,628.83
2023-03-04T12:23:07.796Z,629.49
2023-03-04T12:24:07.788Z,630.68
2023-03-04T12:25:07.802Z,633.05
2023-03-04T12:26:07.771Z,634.89
2023-03-04T12:27:09.494Z,636.87
2023-03-04T12:28:07.820Z,639.16
2023-03-04T12:29:07.800Z,640.37
2023-03-04T12:30:07.766Z,643.44
2023-03-04T12:31:07.827Z,644.63